Time;durP1;ratioP1;P1;durP2;ratioP2;P2;SDS_P1;SDS_P2;PMS_P1;PMS_P2;Temp;Humidity;BMP_temperature;BMP_pressure;BME280_temperature;BME280_humidity;BME280_pressure;Samples;Min_cycle;Max_cycle;Signal;HPM_P1;HPM_P2
2022/10/01 00:02:20;;;;;;;0.70;0.70;;;;;;;;;;5134108;27;20459;-79
2022/10/01 00:04:47;;;;;;;1.20;1.10;;;;;;;;;;5132173;27;20896;-79
2022/10/01 00:07:14;;;;;;;0.77;0.77;;;;;;;;;;5125479;27;20451;-78
2022/10/01 00:09:42;;;;;;;0.87;0.87;;;;;;;;;;5112629;27;20433;-78
2022/10/01 00:12:08;;;;;;;0.80;0.80;;;;;;;;;;5146362;27;20450;-77
2022/10/01 00:14:37;;;;;;;0.80;0.70;;;;;;;;;;5150780;27;20484;-77
2022/10/01 00:17:06;;;;;;;0.73;0.70;;;;;;;;;;5115842;27;20442;-78
2022/10/01 00:19:33;;;;;;;0.70;0.70;;;;;;;;;;5125187;27;20468;-79
2022/10/01 00:22:00;;;;;;;1.10;1.03;;;;;;;;;;5131838;27;20673;-78
2022/10/01 00:24:27;;;;;;;0.70;0.70;;;;;;;;;;5138769;27;20446;-78
2022/10/01 00:26:53;;;;;;;0.80;0.80;;;;;;;;;;5140109;27;20436;-79
2022/10/01 00:29:20;;;;;;;0.70;0.70;;;;;;;;;;5128693;27;20950;-79
2022/10/01 00:31:47;;;;;;;0.70;0.60;;;;;;;;;;5138593;27;20442;-80
2022/10/01 00:34:15;;;;;;;0.80;0.70;;;;;;;;;;5103961;27;20497;-80
2022/10/01 00:36:43;;;;;;;0.70;0.70;;;;;;;;;;5127180;27;20475;-78
2022/10/01 00:39:11;;;;;;;0.80;0.80;;;;;;;;;;5146380;27;20485;-82
2022/10/01 00:41:37;;;;;;;0.70;0.60;;;;;;;;;;5109091;27;20459;-80
2022/10/01 00:44:19;;;;;;;0.80;0.70;;;;;;;;;;5128575;27;20469;-81
2022/10/01 00:46:46;;;;;;;0.80;0.80;;;;;;;;;;5135359;27;20471;-81
2022/10/01 00:49:14;;;;;;;0.80;0.70;;;;;;;;;;5129074;27;20486;-79
2022/10/01 00:51:44;;;;;;;0.80;0.70;;;;;;;;;;5134118;27;20827;-80
2022/10/01 00:54:13;;;;;;;0.80;0.80;;;;;;;;;;5120550;27;20439;-80
2022/10/01 00:56:44;;;;;;;1.17;1.07;;;;;;;;;;5122835;27;20784;-79
2022/10/01 00:59:16;;;;;;;0.70;0.70;;;;;;;;;;5122615;27;20559;-81
2022/10/01 01:01:51;;;;;;;0.80;0.70;;;;;;;;;;5106583;27;20803;-79
2022/10/01 01:04:25;;;;;;;0.80;0.70;;;;;;;;;;5123177;27;20433;-80
2022/10/01 01:06:56;;;;;;;1.03;0.93;;;;;;;;;;5122519;27;20868;-81
2022/10/01 01:09:31;;;;;;;0.80;0.80;;;;;;;;;;5105908;27;20805;-80
2022/10/01 01:12:07;;;;;;;0.80;0.80;;;;;;;;;;5100257;27;21040;-78
2022/10/01 01:14:39;;;;;;;0.80;0.80;;;;;;;;;;5127804;27;20449;-80
2022/10/01 01:17:11;;;;;;;0.70;0.70;;;;;;;;;;5134575;27;20453;-80
2022/10/01 01:19:47;;;;;;;0.70;0.70;;;;;;;;;;5120027;27;20886;-78
2022/10/01 01:22:20;;;;;;;0.90;0.90;;;;;;;;;;5105326;27;20534;-83
2022/10/01 01:24:55;;;;;;;0.70;0.60;;;;;;;;;;5119095;27;20951;-83
2022/10/01 01:27:27;;;;;;;1.33;1.23;;;;;;;;;;5143832;27;20438;-82
2022/10/01 01:30:03;;;;;;;0.70;0.60;;;;;;;;;;5143879;27;20422;-84
2022/10/01 01:32:40;;;;;;;0.70;0.63;;;;;;;;;;5124592;27;20440;-84
2022/10/01 01:35:15;;;;;;;0.70;0.60;;;;;;;;;;5126624;27;20424;-86
2022/10/01 01:37:49;;;;;;;0.70;0.70;;;;;;;;;;5140451;27;20432;-86
2022/10/01 01:40:22;;;;;;;1.37;0.97;;;;;;;;;;5120970;27;21003;-85
2022/10/01 01:42:55;;;;;;;0.70;0.70;;;;;;;;;;5126712;27;20488;-85
2022/10/01 01:45:29;;;;;;;0.87;0.80;;;;;;;;;;5146203;27;20455;-85
2022/10/01 01:48:01;;;;;;;1.57;1.47;;;;;;;;;;5132390;27;20812;-87
2022/10/01 01:50:40;;;;;;;0.80;0.80;;;;;;;;;;5135577;27;20564;-84
2022/10/01 01:53:13;;;;;;;1.43;1.33;;;;;;;;;;5131232;27;20455;-84
2022/10/01 01:55:48;;;;;;;0.70;0.60;;;;;;;;;;5135563;27;20430;-85
2022/10/01 01:58:20;;;;;;;0.70;0.60;;;;;;;;;;5129071;27;20531;-79
2022/10/01 02:00:53;;;;;;;0.67;0.60;;;;;;;;;;5128280;27;20534;-82
2022/10/01 02:03:23;;;;;;;0.73;0.73;;;;;;;;;;5124554;27;20536;-83
2022/10/01 02:05:54;;;;;;;0.70;0.70;;;;;;;;;;5123566;27;20464;-84
2022/10/01 02:08:29;;;;;;;0.70;0.70;;;;;;;;;;5126377;27;20451;-84
2022/10/01 02:11:02;;;;;;;0.70;0.60;;;;;;;;;;5123914;27;20859;-86
2022/10/01 02:13:37;;;;;;;0.70;0.70;;;;;;;;;;5126407;27;20450;-83
2022/10/01 02:16:17;;;;;;;0.70;0.60;;;;;;;;;;5126810;27;20546;-83
2022/10/01 02:18:51;;;;;;;0.70;0.67;;;;;;;;;;5143658;27;20545;-87
2022/10/01 02:21:22;;;;;;;0.70;0.70;;;;;;;;;;5109061;27;20821;-87
2022/10/01 02:23:51;;;;;;;1.10;1.10;;;;;;;;;;5112966;27;20997;-86
2022/10/01 02:26:20;;;;;;;0.80;0.80;;;;;;;;;;5128112;27;20430;-83
2022/10/01 02:28:48;;;;;;;0.60;0.50;;;;;;;;;;5109777;27;20789;-84
2022/10/01 02:31:17;;;;;;;1.23;1.13;;;;;;;;;;5150458;27;20430;-82
2022/10/01 02:33:45;;;;;;;0.70;0.70;;;;;;;;;;5123722;27;20446;-85
2022/10/01 02:36:13;;;;;;;0.63;0.60;;;;;;;;;;5130093;27;20459;-88
2022/10/01 02:38:40;;;;;;;0.70;0.60;;;;;;;;;;5120729;27;20471;-89
2022/10/01 02:41:10;;;;;;;1.30;0.83;;;;;;;;;;5109356;27;20820;-86
2022/10/01 02:43:39;;;;;;;0.70;0.63;;;;;;;;;;5105575;27;20971;-81
2022/10/01 02:46:13;;;;;;;0.70;0.70;;;;;;;;;;5148761;27;20442;-87
2022/10/01 02:48:42;;;;;;;0.70;0.60;;;;;;;;;;5122493;27;20476;-82
2022/10/01 02:51:17;;;;;;;0.60;0.60;;;;;;;;;;5147974;27;20459;-83
2022/10/01 02:53:48;;;;;;;0.70;0.70;;;;;;;;;;5127090;27;20942;-86
2022/10/01 02:57:21;;;;;;;0.60;0.50;;;;;;;;;;5123092;28;20453;-88
2022/10/01 02:59:06;;;;;;;1.33;1.07;;;;;;;;;;5122080;28;20838;-85
2022/10/01 03:01:34;;;;;;;0.70;0.70;;;;;;;;;;5101534;27;20442;-84
2022/10/01 03:04:04;;;;;;;1.57;1.47;;;;;;;;;;5125473;27;20447;-85
2022/10/01 03:06:31;;;;;;;1.10;1.00;;;;;;;;;;5110714;28;20464;-84
2022/10/01 03:08:58;;;;;;;0.70;0.70;;;;;;;;;;5133510;27;21038;-86
2022/10/01 03:11:29;;;;;;;0.70;0.60;;;;;;;;;;5126480;27;21017;-85
2022/10/01 03:14:00;;;;;;;0.70;0.60;;;;;;;;;;5122063;27;20452;-84
2022/10/01 03:16:26;;;;;;;0.70;0.60;;;;;;;;;;5124932;27;20438;-85
2022/10/01 03:18:53;;;;;;;0.70;0.60;;;;;;;;;;5120053;27;20816;-85
2022/10/01 03:21:21;;;;;;;0.70;0.70;;;;;;;;;;5128359;27;20514;-85
2022/10/01 03:23:48;;;;;;;0.67;0.63;;;;;;;;;;5140585;27;20436;-82
2022/10/01 03:26:14;;;;;;;0.70;0.70;;;;;;;;;;5120044;27;20485;-82
2022/10/01 03:28:41;;;;;;;0.60;0.60;;;;;;;;;;5139289;27;20445;-85
2022/10/01 03:31:08;;;;;;;0.70;0.70;;;;;;;;;;5145946;27;20446;-81
2022/10/01 03:33:35;;;;;;;0.70;0.60;;;;;;;;;;5130467;27;20548;-85
2022/10/01 03:36:02;;;;;;;0.70;0.70;;;;;;;;;;5136461;27;20494;-81
2022/10/01 03:38:35;;;;;;;0.73;0.73;;;;;;;;;;5142761;27;20433;-83
2022/10/01 03:41:01;;;;;;;0.60;0.60;;;;;;;;;;5144095;27;20425;-84
2022/10/01 03:43:29;;;;;;;0.80;0.80;;;;;;;;;;5109457;27;20841;-84
2022/10/01 03:45:57;;;;;;;0.70;0.60;;;;;;;;;;5130610;27;20451;-82
2022/10/01 03:48:24;;;;;;;1.30;1.20;;;;;;;;;;5145969;27;20962;-82
2022/10/01 03:50:53;;;;;;;0.70;0.70;;;;;;;;;;5110153;27;20468;-85
2022/10/01 03:53:20;;;;;;;0.70;0.67;;;;;;;;;;5126043;27;20451;-84
2022/10/01 03:55:48;;;;;;;0.63;0.60;;;;;;;;;;5130407;27;20430;-84
2022/10/01 03:58:17;;;;;;;0.70;0.70;;;;;;;;;;5153903;27;20473;-84
2022/10/01 04:00:46;;;;;;;0.60;0.60;;;;;;;;;;5124847;27;20467;-86
2022/10/01 04:03:14;;;;;;;0.63;0.60;;;;;;;;;;5129745;27;20438;-86
2022/10/01 04:05:41;;;;;;;1.37;1.27;;;;;;;;;;5127766;27;20791;-84
2022/10/01 04:08:08;;;;;;;1.33;1.23;;;;;;;;;;5108642;27;20450;-83
2022/10/01 04:10:35;;;;;;;0.70;0.70;;;;;;;;;;5125359;27;20447;-88
2022/10/01 04:13:03;;;;;;;0.60;0.60;;;;;;;;;;5126743;27;20454;-83
2022/10/01 04:15:31;;;;;;;0.60;0.60;;;;;;;;;;5111360;27;20450;-83
2022/10/01 04:18:04;;;;;;;0.60;0.60;;;;;;;;;;5148517;27;20480;-85
2022/10/01 04:20:31;;;;;;;0.70;0.70;;;;;;;;;;5142181;27;20508;-82
2022/10/01 04:23:02;;;;;;;0.60;0.60;;;;;;;;;;5126569;27;21038;-83
2022/10/01 04:25:29;;;;;;;0.70;0.70;;;;;;;;;;5131258;27;20483;-80
2022/10/01 04:27:57;;;;;;;0.77;0.77;;;;;;;;;;5116722;27;20450;-78
2022/10/01 04:30:27;;;;;;;0.70;0.60;;;;;;;;;;5119181;27;20482;-80
2022/10/01 04:32:54;;;;;;;0.70;0.70;;;;;;;;;;5133049;27;20450;-80
2022/10/01 04:35:21;;;;;;;0.60;0.60;;;;;;;;;;5128119;27;20430;-81
2022/10/01 04:37:54;;;;;;;0.67;0.67;;;;;;;;;;5125349;27;20936;-78
2022/10/01 04:40:20;;;;;;;0.70;0.70;;;;;;;;;;5159259;27;20509;-84
2022/10/01 04:42:47;;;;;;;0.60;0.60;;;;;;;;;;5134387;27;20972;-79
2022/10/01 04:45:14;;;;;;;0.70;0.70;;;;;;;;;;5128523;27;20520;-79
2022/10/01 04:47:47;;;;;;;0.70;0.70;;;;;;;;;;5124084;27;20453;-79
2022/10/01 04:50:15;;;;;;;0.80;0.80;;;;;;;;;;5128307;27;20445;-80
2022/10/01 04:52:44;;;;;;;0.70;0.70;;;;;;;;;;5121961;27;20924;-82
2022/10/01 04:55:12;;;;;;;0.60;0.60;;;;;;;;;;5109812;27;20455;-84
2022/10/01 04:57:39;;;;;;;0.60;0.60;;;;;;;;;;5108048;27;20463;-79
2022/10/01 05:00:07;;;;;;;0.70;0.70;;;;;;;;;;5124323;27;20475;-85
2022/10/01 05:02:33;;;;;;;0.70;0.70;;;;;;;;;;5129968;27;20555;-81
2022/10/01 05:05:03;;;;;;;0.63;0.60;;;;;;;;;;5126752;27;20468;-82
2022/10/01 05:07:30;;;;;;;0.67;0.60;;;;;;;;;;5125901;27;20809;-83
2022/10/01 05:09:59;;;;;;;0.60;0.60;;;;;;;;;;5128495;27;20534;-85
2022/10/01 05:12:27;;;;;;;0.70;0.70;;;;;;;;;;5145100;27;20821;-86
2022/10/01 05:14:55;;;;;;;0.70;0.70;;;;;;;;;;5130333;27;20454;-83
2022/10/01 05:17:23;;;;;;;0.70;0.70;;;;;;;;;;5130183;27;20431;-81
2022/10/01 05:19:50;;;;;;;0.60;0.60;;;;;;;;;;5130976;27;20554;-79
2022/10/01 05:22:19;;;;;;;0.70;0.63;;;;;;;;;;5129485;27;20459;-89
2022/10/01 05:24:46;;;;;;;0.67;0.60;;;;;;;;;;5148725;27;20447;-82
2022/10/01 05:27:13;;;;;;;0.63;0.60;;;;;;;;;;5124687;27;20952;-81
2022/10/01 05:29:40;;;;;;;0.60;0.60;;;;;;;;;;5132085;27;20944;-84
2022/10/01 05:32:07;;;;;;;0.60;0.60;;;;;;;;;;5129729;27;20446;-85
2022/10/01 05:34:34;;;;;;;0.70;0.70;;;;;;;;;;5124759;27;20424;-82
2022/10/01 05:37:01;;;;;;;0.70;0.70;;;;;;;;;;5122723;27;20463;-80
2022/10/01 05:39:31;;;;;;;0.60;0.60;;;;;;;;;;5124272;27;20554;-82
2022/10/01 05:42:01;;;;;;;0.70;0.70;;;;;;;;;;5142587;27;20467;-82
2022/10/01 05:44:36;;;;;;;0.70;0.70;;;;;;;;;;5150214;27;20432;-81
2022/10/01 05:47:04;;;;;;;0.60;0.50;;;;;;;;;;5109419;27;20447;-79
2022/10/01 05:49:34;;;;;;;0.60;0.60;;;;;;;;;;5104083;27;20440;-78
2022/10/01 05:52:01;;;;;;;0.60;0.60;;;;;;;;;;5121982;27;20471;-78
2022/10/01 05:54:33;;;;;;;0.70;0.60;;;;;;;;;;5118438;27;20437;-79
2022/10/01 05:57:00;;;;;;;0.87;0.87;;;;;;;;;;5127032;27;20454;-81
2022/10/01 05:59:27;;;;;;;0.63;0.60;;;;;;;;;;5120483;27;20427;-79
2022/10/01 06:01:58;;;;;;;0.60;0.60;;;;;;;;;;5127615;27;20454;-79
2022/10/01 06:04:27;;;;;;;0.60;0.60;;;;;;;;;;5142571;27;20447;-79
2022/10/01 06:06:55;;;;;;;0.60;0.53;;;;;;;;;;5125601;27;20471;-82
2022/10/01 06:09:23;;;;;;;0.60;0.60;;;;;;;;;;5129844;27;20448;-81
2022/10/01 06:11:52;;;;;;;0.70;0.60;;;;;;;;;;5127068;27;20452;-84
2022/10/01 06:14:18;;;;;;;0.60;0.60;;;;;;;;;;5130465;27;20517;-82
2022/10/01 06:16:46;;;;;;;0.60;0.60;;;;;;;;;;5126689;27;20440;-82
2022/10/01 06:19:13;;;;;;;0.70;0.70;;;;;;;;;;5122579;27;20896;-80
2022/10/01 06:21:40;;;;;;;0.70;0.70;;;;;;;;;;5123763;27;20476;-79
2022/10/01 06:24:07;;;;;;;0.70;0.60;;;;;;;;;;5142326;27;20436;-82
2022/10/01 06:26:35;;;;;;;0.70;0.70;;;;;;;;;;5125064;27;20461;-80
2022/10/01 06:29:03;;;;;;;0.60;0.60;;;;;;;;;;5141761;27;20426;-81
2022/10/01 06:31:30;;;;;;;0.70;0.70;;;;;;;;;;5136498;27;20841;-81
2022/10/01 06:33:59;;;;;;;0.70;0.70;;;;;;;;;;5125870;27;20449;-79
2022/10/01 06:36:25;;;;;;;0.70;0.60;;;;;;;;;;5128130;27;20458;-84
2022/10/01 06:39:18;;;;;;;0.67;0.60;;;;;;;;;;5115464;27;20934;-82
2022/10/01 06:41:46;;;;;;;0.70;0.60;;;;;;;;;;5139477;27;20464;-82
2022/10/01 06:44:15;;;;;;;0.70;0.70;;;;;;;;;;5132288;27;20542;-83
2022/10/01 06:46:44;;;;;;;0.60;0.60;;;;;;;;;;5128593;27;20447;-85
2022/10/01 06:49:12;;;;;;;0.73;0.73;;;;;;;;;;5130056;27;20447;-82
2022/10/01 06:54:26;;;;;;;0.60;0.60;;;;;;;;;;5101240;27;21047;-79
2022/10/01 06:56:56;;;;;;;1.17;1.07;;;;;;;;;;5128577;27;20440;-82
2022/10/01 06:59:25;;;;;;;0.63;0.60;;;;;;;;;;5125053;28;20528;-80
2022/10/01 07:01:52;;;;;;;0.70;0.70;;;;;;;;;;5142925;27;20574;-81
2022/10/01 07:04:24;;;;;;;0.70;0.60;;;;;;;;;;5130970;27;20445;-81
2022/10/01 07:06:54;;;;;;;0.70;0.70;;;;;;;;;;5112765;27;21004;-83
2022/10/01 07:09:22;;;;;;;0.77;0.77;;;;;;;;;;5123150;28;20973;-81
2022/10/01 07:11:48;;;;;;;0.70;0.70;;;;;;;;;;5131626;27;20455;-82
2022/10/01 07:14:15;;;;;;;0.70;0.70;;;;;;;;;;5144798;27;20957;-81
2022/10/01 07:16:43;;;;;;;0.70;0.70;;;;;;;;;;5109927;28;20478;-79
2022/10/01 07:19:11;;;;;;;0.70;0.70;;;;;;;;;;5124329;27;20537;-79
2022/10/01 07:21:38;;;;;;;0.60;0.60;;;;;;;;;;5130247;27;20498;-79
2022/10/01 07:24:05;;;;;;;0.70;0.70;;;;;;;;;;5137005;27;20442;-83
2022/10/01 07:26:37;;;;;;;0.70;0.63;;;;;;;;;;5110748;27;20446;-84
2022/10/01 07:29:05;;;;;;;0.70;0.70;;;;;;;;;;5144473;27;20446;-82
2022/10/01 07:31:32;;;;;;;0.70;0.70;;;;;;;;;;5100575;27;20529;-84
2022/10/01 07:34:03;;;;;;;0.70;0.70;;;;;;;;;;5130617;27;20883;-86
2022/10/01 07:36:37;;;;;;;0.70;0.70;;;;;;;;;;5146764;27;20467;-84
2022/10/01 07:39:08;;;;;;;0.70;0.70;;;;;;;;;;5129903;27;20454;-83
2022/10/01 07:41:35;;;;;;;0.70;0.70;;;;;;;;;;5144324;27;20861;-89
2022/10/01 07:44:03;;;;;;;0.70;0.60;;;;;;;;;;5122879;27;20494;-84
2022/10/01 07:46:31;;;;;;;0.70;0.60;;;;;;;;;;5128298;27;20451;-86
2022/10/01 07:49:01;;;;;;;0.70;0.70;;;;;;;;;;5131391;27;20784;-89
2022/10/01 07:51:29;;;;;;;0.70;0.60;;;;;;;;;;5132834;27;20460;-85
2022/10/01 07:53:56;;;;;;;0.70;0.67;;;;;;;;;;5126202;27;20925;-83
2022/10/01 07:56:25;;;;;;;0.70;0.70;;;;;;;;;;5112481;27;20454;-83
2022/10/01 07:58:53;;;;;;;0.70;0.70;;;;;;;;;;5125525;27;21020;-84
2022/10/01 08:01:20;;;;;;;0.70;0.70;;;;;;;;;;5131298;27;20557;-82
2022/10/01 08:03:48;;;;;;;0.70;0.70;;;;;;;;;;5143126;27;20457;-80
2022/10/01 08:06:16;;;;;;;0.80;0.80;;;;;;;;;;5143080;27;20466;-82
2022/10/01 08:08:50;;;;;;;0.70;0.60;;;;;;;;;;5115489;27;20957;-81
2022/10/01 08:11:17;;;;;;;0.70;0.70;;;;;;;;;;5130813;27;20952;-82
2022/10/01 08:13:44;;;;;;;0.70;0.70;;;;;;;;;;5127111;27;20442;-83
2022/10/01 08:16:11;;;;;;;0.70;0.70;;;;;;;;;;5129944;27;20470;-83
2022/10/01 08:18:40;;;;;;;0.70;0.70;;;;;;;;;;5127377;27;20968;-81
2022/10/01 08:21:07;;;;;;;0.80;0.80;;;;;;;;;;5129433;27;20474;-83
2022/10/01 08:23:34;;;;;;;0.70;0.70;;;;;;;;;;5113565;27;21012;-84
2022/10/01 08:26:04;;;;;;;0.70;0.60;;;;;;;;;;5141005;27;21050;-82
2022/10/01 08:28:31;;;;;;;0.70;0.60;;;;;;;;;;5108188;27;20450;-82
2022/10/01 08:30:58;;;;;;;0.73;0.73;;;;;;;;;;5123525;27;20538;-83
2022/10/01 08:33:25;;;;;;;0.70;0.70;;;;;;;;;;5128651;27;20458;-79
2022/10/01 08:35:54;;;;;;;0.70;0.70;;;;;;;;;;5130012;27;20572;-84
2022/10/01 08:38:21;;;;;;;0.70;0.70;;;;;;;;;;5133102;27;20438;-81
2022/10/01 08:40:48;;;;;;;0.70;0.60;;;;;;;;;;5144891;27;20500;-82
2022/10/01 08:43:24;;;;;;;0.70;0.70;;;;;;;;;;5126193;27;20816;-82
2022/10/01 08:45:54;;;;;;;0.70;0.70;;;;;;;;;;5112113;27;20464;-81
2022/10/01 08:48:27;;;;;;;0.70;0.70;;;;;;;;;;5144017;27;20446;-81
2022/10/01 08:50:56;;;;;;;0.70;0.60;;;;;;;;;;5149588;27;20912;-81
2022/10/01 08:53:30;;;;;;;0.70;0.70;;;;;;;;;;5152038;27;20791;-82
2022/10/01 08:55:58;;;;;;;0.70;0.70;;;;;;;;;;5101668;27;20490;-82
2022/10/01 08:58:28;;;;;;;0.70;0.70;;;;;;;;;;5149130;27;20537;-80
2022/10/01 09:00:54;;;;;;;0.70;0.70;;;;;;;;;;5106593;27;20463;-80
2022/10/01 09:03:21;;;;;;;0.70;0.60;;;;;;;;;;5123889;27;20472;-81
2022/10/01 09:06:02;;;;;;;1.03;0.93;;;;;;;;;;5126846;27;20490;-80
2022/10/01 09:08:44;;;;;;;0.77;0.77;;;;;;;;;;5122481;27;20424;-81
2022/10/01 09:11:20;;;;;;;0.77;0.77;;;;;;;;;;5103030;27;20437;-78
2022/10/01 09:13:58;;;;;;;0.70;0.70;;;;;;;;;;5129250;27;21008;-77
2022/10/01 09:16:28;;;;;;;0.70;0.70;;;;;;;;;;5127131;27;20442;-78
2022/10/01 09:19:00;;;;;;;0.70;0.60;;;;;;;;;;5134887;27;20443;-79
2022/10/01 09:21:35;;;;;;;0.70;0.60;;;;;;;;;;5154692;27;20473;-86
2022/10/01 09:24:03;;;;;;;0.80;0.80;;;;;;;;;;5116641;27;20446;-78
2022/10/01 09:26:30;;;;;;;0.70;0.60;;;;;;;;;;5143074;27;20433;-84
2022/10/01 09:28:59;;;;;;;0.70;0.70;;;;;;;;;;5126111;27;20773;-81
2022/10/01 09:31:28;;;;;;;0.70;0.60;;;;;;;;;;5109345;27;20540;-82
2022/10/01 09:33:57;;;;;;;0.70;0.67;;;;;;;;;;5111548;27;20868;-83
2022/10/01 09:36:32;;;;;;;0.70;0.70;;;;;;;;;;5120558;27;20951;-84
2022/10/01 09:39:03;;;;;;;0.70;0.70;;;;;;;;;;5096605;27;20860;-81
2022/10/01 09:41:30;;;;;;;0.70;0.70;;;;;;;;;;5123458;27;20554;-81
2022/10/01 09:44:01;;;;;;;1.10;1.00;;;;;;;;;;5143131;27;20462;-83
2022/10/01 09:46:28;;;;;;;1.00;0.90;;;;;;;;;;5121141;27;20475;-80
2022/10/01 09:48:57;;;;;;;0.70;0.60;;;;;;;;;;5128132;27;20463;-83
2022/10/01 09:51:26;;;;;;;0.70;0.60;;;;;;;;;;5104145;27;20505;-82
2022/10/01 09:53:59;;;;;;;0.70;0.60;;;;;;;;;;5142343;27;20467;-79
2022/10/01 09:56:28;;;;;;;0.70;0.70;;;;;;;;;;5111465;27;20470;-82
2022/10/01 09:58:58;;;;;;;0.80;0.80;;;;;;;;;;5133159;27;20550;-80
2022/10/01 10:01:35;;;;;;;0.70;0.70;;;;;;;;;;5128672;27;20471;-81
2022/10/01 10:04:03;;;;;;;0.70;0.60;;;;;;;;;;5127266;27;20422;-81
2022/10/01 10:06:30;;;;;;;0.80;0.70;;;;;;;;;;5125215;27;20436;-82
2022/10/01 10:08:59;;;;;;;0.70;0.70;;;;;;;;;;5144634;27;20398;-82
2022/10/01 10:11:27;;;;;;;0.70;0.70;;;;;;;;;;5124119;27;20503;-83
2022/10/01 10:13:55;;;;;;;1.53;1.33;;;;;;;;;;5153538;27;20519;-82
2022/10/01 10:16:26;;;;;;;0.70;0.60;;;;;;;;;;5133123;27;20957;-83
2022/10/01 10:18:56;;;;;;;0.70;0.60;;;;;;;;;;5125046;27;20456;-81
2022/10/01 10:21:24;;;;;;;0.70;0.70;;;;;;;;;;5111269;27;20472;-80
2022/10/01 10:23:52;;;;;;;0.70;0.70;;;;;;;;;;5143766;27;20427;-81
2022/10/01 10:26:20;;;;;;;0.70;0.70;;;;;;;;;;5104556;27;20811;-78
2022/10/01 10:28:47;;;;;;;0.80;0.73;;;;;;;;;;5128055;27;20451;-79
2022/10/01 10:31:19;;;;;;;0.70;0.67;;;;;;;;;;5122832;27;20460;-79
2022/10/01 10:33:50;;;;;;;0.70;0.70;;;;;;;;;;5108908;27;20800;-78
2022/10/01 10:36:19;;;;;;;0.73;0.70;;;;;;;;;;5137855;27;20859;-78
2022/10/01 10:38:48;;;;;;;0.70;0.60;;;;;;;;;;5108819;27;20439;-79
2022/10/01 10:41:18;;;;;;;0.70;0.70;;;;;;;;;;5117614;27;20904;-78
2022/10/01 10:43:47;;;;;;;0.70;0.60;;;;;;;;;;5116662;27;20443;-77
2022/10/01 10:46:21;;;;;;;0.70;0.70;;;;;;;;;;5150792;27;20434;-78
2022/10/01 10:48:57;;;;;;;0.70;0.70;;;;;;;;;;5106041;27;20455;-78
2022/10/01 10:51:27;;;;;;;0.70;0.67;;;;;;;;;;5119935;27;20459;-78
2022/10/01 10:53:53;;;;;;;0.80;0.73;;;;;;;;;;5115791;27;20443;-79
2022/10/01 10:56:22;;;;;;;0.70;0.70;;;;;;;;;;5094894;27;20442;-79
2022/10/01 10:58:49;;;;;;;0.70;0.70;;;;;;;;;;5098272;27;20443;-78
2022/10/01 11:01:20;;;;;;;0.70;0.60;;;;;;;;;;5113964;27;20561;-79
2022/10/01 11:04:17;;;;;;;0.80;0.80;;;;;;;;;;5140933;27;20421;-79
2022/10/01 11:06:54;;;;;;;0.73;0.73;;;;;;;;;;5130358;27;20458;-79
2022/10/01 11:09:23;;;;;;;0.70;0.70;;;;;;;;;;5141028;27;20430;-79
2022/10/01 11:11:54;;;;;;;0.70;0.70;;;;;;;;;;5120580;27;20565;-79
2022/10/01 11:14:28;;;;;;;0.80;0.70;;;;;;;;;;5152029;27;20946;-78
2022/10/01 11:17:04;;;;;;;0.80;0.80;;;;;;;;;;5107775;27;20534;-79
2022/10/01 11:19:40;;;;;;;0.90;0.90;;;;;;;;;;5120276;27;20444;-78
2022/10/01 11:22:31;;;;;;;0.70;0.70;;;;;;;;;;5142007;27;20563;-79
2022/10/01 11:25:01;;;;;;;1.10;1.00;;;;;;;;;;5103853;27;20535;-78
2022/10/01 11:27:35;;;;;;;0.70;0.70;;;;;;;;;;5099985;27;20461;-79
2022/10/01 11:30:04;;;;;;;0.70;0.67;;;;;;;;;;5119227;27;20438;-79
2022/10/01 11:32:35;;;;;;;0.70;0.70;;;;;;;;;;5134170;27;20920;-78
2022/10/01 11:35:08;;;;;;;0.80;0.77;;;;;;;;;;5140470;27;20592;-78
2022/10/01 11:37:57;;;;;;;0.80;0.70;;;;;;;;;;5128629;27;20447;-78
2022/10/01 11:40:31;;;;;;;0.80;0.80;;;;;;;;;;5119812;27;20812;-77
2022/10/01 11:43:01;;;;;;;0.97;0.87;;;;;;;;;;5103890;27;20953;-78
2022/10/01 11:45:30;;;;;;;0.70;0.70;;;;;;;;;;5113331;27;20441;-77
2022/10/01 11:47:58;;;;;;;0.93;0.93;;;;;;;;;;5120334;27;20461;-79
2022/10/01 11:50:27;;;;;;;0.70;0.70;;;;;;;;;;5125952;27;20420;-76
2022/10/01 11:52:57;;;;;;;0.70;0.70;;;;;;;;;;5123676;27;20449;-74
2022/10/01 12:01:06;;;;;;;0.80;0.80;;;;;;;;;;5140090;27;20441;-74
2022/10/01 12:03:37;;;;;;;0.80;0.80;;;;;;;;;;5119801;27;20493;-74
2022/10/01 12:06:08;;;;;;;0.93;0.93;;;;;;;;;;5107324;27;21064;-74
2022/10/01 12:08:36;;;;;;;0.70;0.60;;;;;;;;;;5129323;27;20451;-75
2022/10/01 12:11:06;;;;;;;0.90;0.90;;;;;;;;;;5129993;27;20455;-76
2022/10/01 12:13:37;;;;;;;0.80;0.80;;;;;;;;;;5147156;27;20439;-77
2022/10/01 12:16:07;;;;;;;0.80;0.80;;;;;;;;;;5099445;27;20439;-72
2022/10/01 12:18:41;;;;;;;1.00;1.00;;;;;;;;;;5130407;27;20424;-75
2022/10/01 12:21:13;;;;;;;0.80;0.70;;;;;;;;;;5127257;27;20525;-76
2022/10/01 12:23:42;;;;;;;0.80;0.80;;;;;;;;;;5122755;27;20451;-75
2022/10/01 12:26:17;;;;;;;1.20;1.10;;;;;;;;;;5122307;27;20544;-76
2022/10/01 12:28:49;;;;;;;0.80;0.80;;;;;;;;;;5146625;27;20467;-76
2022/10/01 12:31:27;;;;;;;0.70;0.60;;;;;;;;;;5129997;27;20479;-76
2022/10/01 12:33:59;;;;;;;0.70;0.70;;;;;;;;;;5103695;27;20973;-75
2022/10/01 12:36:35;;;;;;;0.80;0.80;;;;;;;;;;5137644;27;20467;-74
2022/10/01 12:39:08;;;;;;;0.70;0.70;;;;;;;;;;5123049;27;20463;-75
2022/10/01 12:41:44;;;;;;;0.70;0.70;;;;;;;;;;5127186;27;20541;-75
2022/10/01 12:44:25;;;;;;;0.80;0.80;;;;;;;;;;5124340;27;20441;-75
2022/10/01 12:46:58;;;;;;;0.70;0.70;;;;;;;;;;5142851;27;20439;-74
2022/10/01 12:49:28;;;;;;;0.80;0.80;;;;;;;;;;5127152;27;20527;-75
2022/10/01 12:51:58;;;;;;;0.70;0.70;;;;;;;;;;5123415;27;20559;-73
2022/10/01 12:54:33;;;;;;;0.80;0.80;;;;;;;;;;5132883;27;20475;-75
2022/10/01 12:57:04;;;;;;;0.70;0.60;;;;;;;;;;5141258;27;20886;-74
2022/10/01 12:59:39;;;;;;;0.70;0.60;;;;;;;;;;5137490;27;20871;-75
2022/10/01 13:02:17;;;;;;;0.70;0.60;;;;;;;;;;5105149;27;20499;-75
2022/10/01 13:04:56;;;;;;;0.70;0.70;;;;;;;;;;5146278;27;20886;-75
2022/10/01 13:07:41;;;;;;;0.70;0.70;;;;;;;;;;5112616;27;20478;-75
2022/10/01 13:10:14;;;;;;;0.70;0.70;;;;;;;;;;5141932;27;20444;-75
2022/10/01 13:12:55;;;;;;;0.90;0.90;;;;;;;;;;5143089;27;20441;-74
2022/10/01 13:15:26;;;;;;;0.70;0.70;;;;;;;;;;5126300;27;20431;-76
2022/10/01 13:17:56;;;;;;;2.40;1.80;;;;;;;;;;5105619;27;20948;-74
2022/10/01 13:20:29;;;;;;;0.90;0.90;;;;;;;;;;5122039;27;20450;-74
2022/10/01 13:23:00;;;;;;;0.80;0.80;;;;;;;;;;5123512;27;20460;-75
2022/10/01 13:25:30;;;;;;;0.70;0.60;;;;;;;;;;5101663;27;21048;-74
2022/10/01 13:28:00;;;;;;;0.70;0.70;;;;;;;;;;5120016;27;20968;-75
2022/10/01 13:30:33;;;;;;;0.70;0.70;;;;;;;;;;5121810;27;20495;-74
2022/10/01 13:33:00;;;;;;;0.70;0.60;;;;;;;;;;5121956;27;20439;-75
2022/10/01 13:35:27;;;;;;;0.77;0.70;;;;;;;;;;5125338;27;20431;-75
2022/10/01 13:38:12;;;;;;;0.70;0.70;;;;;;;;;;5143404;27;20441;-74
2022/10/01 13:40:39;;;;;;;0.70;0.70;;;;;;;;;;5109823;27;20524;-76
2022/10/01 13:43:07;;;;;;;0.70;0.60;;;;;;;;;;5124838;27;20464;-76
2022/10/01 13:45:40;;;;;;;1.53;1.43;;;;;;;;;;5102351;27;20444;-76
2022/10/01 13:48:13;;;;;;;0.80;0.80;;;;;;;;;;5109505;27;20945;-74
2022/10/01 13:50:54;;;;;;;0.70;0.70;;;;;;;;;;5120149;27;20443;-75
2022/10/01 13:53:25;;;;;;;0.80;0.70;;;;;;;;;;5118607;27;20425;-76
2022/10/01 13:55:52;;;;;;;0.70;0.70;;;;;;;;;;5114392;27;20440;-76
2022/10/01 13:58:23;;;;;;;0.70;0.70;;;;;;;;;;5121132;27;20464;-75
2022/10/01 14:00:53;;;;;;;0.70;0.60;;;;;;;;;;5119773;27;20460;-74
2022/10/01 14:03:33;;;;;;;0.70;0.60;;;;;;;;;;5135262;27;20468;-76
2022/10/01 14:06:01;;;;;;;0.70;0.70;;;;;;;;;;5116919;27;20467;-74
2022/10/01 14:08:31;;;;;;;0.80;0.80;;;;;;;;;;5110433;27;20806;-75
2022/10/01 14:16:36;;;;;;;0.70;0.70;;;;;;;;;;5124619;27;20494;-74
2022/10/01 14:19:03;;;;;;;0.77;0.70;;;;;;;;;;5102717;27;20517;-75
2022/10/01 14:21:45;;;;;;;0.70;0.70;;;;;;;;;;5123686;27;20467;-76
2022/10/01 14:24:16;;;;;;;0.70;0.70;;;;;;;;;;5103019;27;20494;-74
2022/10/01 14:26:49;;;;;;;0.80;0.80;;;;;;;;;;5133740;27;20459;-75
2022/10/01 14:29:22;;;;;;;1.10;1.00;;;;;;;;;;5102211;27;20473;-74
2022/10/01 14:31:55;;;;;;;0.70;0.70;;;;;;;;;;5107023;27;20472;-75
2022/10/01 14:34:30;;;;;;;0.80;0.70;;;;;;;;;;5128031;27;20412;-74
2022/10/01 14:36:57;;;;;;;0.77;0.70;;;;;;;;;;5141844;27;20551;-74
2022/10/01 14:39:28;;;;;;;2.10;1.90;;;;;;;;;;5131577;27;20826;-73
2022/10/01 14:41:56;;;;;;;0.70;0.70;;;;;;;;;;5143819;27;20933;-75
2022/10/01 14:44:25;;;;;;;0.70;0.70;;;;;;;;;;5140047;27;20444;-74
2022/10/01 14:46:54;;;;;;;0.80;0.70;;;;;;;;;;5103934;27;20447;-73
2022/10/01 14:49:25;;;;;;;0.73;0.70;;;;;;;;;;5140696;27;20395;-73
2022/10/01 14:51:55;;;;;;;0.80;0.70;;;;;;;;;;5143291;27;20427;-72
2022/10/01 14:54:22;;;;;;;0.80;0.80;;;;;;;;;;5113835;27;20426;-72
2022/10/01 14:56:49;;;;;;;0.90;0.83;;;;;;;;;;5129056;27;20444;-74
2022/10/01 14:59:19;;;;;;;0.70;0.70;;;;;;;;;;5126323;27;20440;-73
2022/10/01 15:01:54;;;;;;;0.80;0.70;;;;;;;;;;5115643;27;20786;-73
2022/10/01 15:04:21;;;;;;;0.70;0.70;;;;;;;;;;5146927;27;20460;-73
2022/10/01 15:06:48;;;;;;;0.70;0.60;;;;;;;;;;5134727;27;20422;-74
2022/10/01 15:09:17;;;;;;;0.70;0.60;;;;;;;;;;5133125;27;20421;-73
2022/10/01 15:11:46;;;;;;;0.70;0.70;;;;;;;;;;5126382;27;20429;-74
2022/10/01 15:14:14;;;;;;;0.80;0.80;;;;;;;;;;5084732;27;20533;-73
2022/10/01 15:16:42;;;;;;;0.80;0.70;;;;;;;;;;5121960;27;20901;-72